»·PEaware :: CGHFO KSNA-KBUR

CGHFO :: KSNA-KBUR

FLIGHT INFORMATION

Flight Status: Arrived
Operator: Unknown
More flights by this operator :: More flights under this callsign
Pilot: Basie S. (26327)
Aircraft: BEECH AIRCRAFT DEBONAIR BONANZA
(BE33)
More flights by this aircraft type
Origin: KSNA John Wayne-Orange Co
United States
Destination: KBUR Bob Hope-Burbank
United States
More flights between these airports :: More routes between these airports
Route: SLI V23 POPRR SMO125R SMO SMO311R SILEX
File this flight plan on PilotEdge
Remarks: I-3 RATING
Altitude:
(Current/Filed)
4,000ft
Speed:
(Current/Filed)
155kts
Departed: 24-Sep-19 06:51 PM
Arrived: 24-Sep-19 07:25 PM
Distance/Time
Traveled:
40nm/0:34
Distance/Time
To Go:
Arrived

Flight Plot

Page will automatically refresh every two minutes.

Flight plan parsing failed; only flown route is shown


Map Options




Map Legend


Flown Route
Filed Route
Departure Airport
Arrival Airport
Navaid (VOR, NDB)
Fix

Horizontal Profiles

Position Reports

Time Latitude Longitude Heading Altitude Ground
Speed
24-Sep-19 18:35 33.674462 -117.871757 127 60ft 0kts
24-Sep-19 18:36 33.674462 -117.871757 127 60ft 0kts
24-Sep-19 18:37 33.674462 -117.871757 127 60ft 0kts
24-Sep-19 18:38 33.674462 -117.871757 127 60ft 0kts
24-Sep-19 18:39 33.674462 -117.871757 127 60ft 0kts
24-Sep-19 18:40 33.674462 -117.871757 127 60ft 0kts
24-Sep-19 18:41 33.674462 -117.871757 128 60ft 0kts
24-Sep-19 18:42 33.674438 -117.871721 128 60ft 2kts
24-Sep-19 18:43 33.675590 -117.870394 27 60ft 6kts
24-Sep-19 18:44 33.677084 -117.869449 26 60ft 6kts
24-Sep-19 18:45 33.678023 -117.868768 54 60ft 3kts
24-Sep-19 18:46 33.678099 -117.868560 83 60ft 0kts
24-Sep-19 18:47 33.678099 -117.868560 83 60ft 0kts
24-Sep-19 18:48 33.678099 -117.868560 83 60ft 0kts
24-Sep-19 18:49 33.676942 -117.868005 204 60ft 33kts
24-Sep-19 18:50 33.660264 -117.886688 240 429ft 99kts
24-Sep-19 18:51 33.647711 -117.915462 240 1034ft 97kts
24-Sep-19 18:52 33.632074 -117.947587 241 1878ft 122kts
24-Sep-19 18:53 33.613505 -117.983156 241 2682ft 130kts
24-Sep-19 18:54 33.601994 -118.019223 306 3429ft 122kts
24-Sep-19 18:55 33.624065 -118.050027 316 3997ft 135kts
24-Sep-19 18:56 33.652544 -118.084598 317 3992ft 152kts
24-Sep-19 18:57 33.683661 -118.119152 320 3987ft 154kts
24-Sep-19 18:58 33.716172 -118.152189 322 3984ft 153kts
24-Sep-19 18:59 33.749060 -118.183244 323 3980ft 146kts
24-Sep-19 19:00 33.781013 -118.212623 323 3980ft 144kts
24-Sep-19 19:01 33.810580 -118.244768 313 3982ft 143kts
24-Sep-19 19:02 33.837385 -118.280379 313 3984ft 143kts
24-Sep-19 19:03 33.864479 -118.315391 313 3987ft 142kts
24-Sep-19 19:04 33.891864 -118.349691 313 3992ft 142kts
24-Sep-19 19:05 33.921403 -118.381353 323 3989ft 144kts
24-Sep-19 19:06 33.954929 -118.408005 323 3987ft 143kts
24-Sep-19 19:07 33.990411 -118.436322 323 3997ft 164kts
24-Sep-19 19:08 34.027437 -118.470633 323 3994ft 173kts
24-Sep-19 19:09 34.067751 -118.503398 324 3993ft 174kts
24-Sep-19 19:10 34.106505 -118.534763 324 3986ft 164kts
24-Sep-19 19:11 34.142888 -118.564221 322 3984ft 146kts
24-Sep-19 19:12 34.173195 -118.588991 321 3980ft 125kts
24-Sep-19 19:13 34.202608 -118.606844 335 3987ft 121kts
24-Sep-19 19:14 34.224418 -118.629711 289 3996ft 112kts
24-Sep-19 19:15 34.223623 -118.666643 217 3978ft 111kts
24-Sep-19 19:16 34.208360 -118.645531 56 4004ft 126kts
24-Sep-19 19:17 34.201840 -118.605400 136 3997ft 143kts
24-Sep-19 19:18 34.192275 -118.558777 92 3989ft 150kts
24-Sep-19 19:19 34.190309 -118.506381 92 3689ft 162kts
24-Sep-19 19:20 34.192682 -118.454511 91 2628ft 136kts
24-Sep-19 19:21 34.197629 -118.415803 92 1558ft 86kts
24-Sep-19 19:22 34.198540 -118.388217 95 1127ft 77kts
24-Sep-19 19:23 34.197779 -118.362355 98 780ft 58kts
24-Sep-19 19:24 34.196230 -118.357887 176 780ft 10kts
24-Sep-19 19:25 34.195540 -118.357549 180 780ft 0kts
24-Sep-19 19:26 34.195515 -118.357550 180 780ft 0kts
24-Sep-19 19:27 34.195515 -118.357550 180 780ft 0kts
24-Sep-19 19:28 34.195515 -118.357550 180 780ft 0kts
24-Sep-19 19:29 34.195515 -118.357550 180 780ft 0kts

Navigation Log

Ident Type
Flight plan parsing failed, navigation log unavailable